Time;durP1;ratioP1;P1;durP2;ratioP2;P2;SDS_P1;SDS_P2;PMS_P1;PMS_P2;Temp;Humidity;BMP_temperature;BMP_pressure;BME280_temperature;BME280_humidity;BME280_pressure;Samples;Min_cycle;Max_cycle;Signal;HPM_P1;HPM_P2
2021/05/19 00:00:54;;;;;;;4.45;2.10;;;;;;;;;;5035503;28;20033;-77
2021/05/19 00:03:19;;;;;;;4.85;2.17;;;;;;;;;;5053069;28;20500;-77
2021/05/19 00:05:45;;;;;;;2.30;2.10;;;;;;;;;;5053188;28;20037;-77
2021/05/19 00:08:11;;;;;;;1.75;1.63;;;;;;;;;;5053276;28;20037;-76
2021/05/19 00:10:37;;;;;;;2.72;2.03;;;;;;;;;;5053279;28;20033;-77
2021/05/19 00:13:04;;;;;;;5.28;2.60;;;;;;;;;;5052475;28;20064;-76
2021/05/19 00:15:29;;;;;;;3.58;2.17;;;;;;;;;;5053326;28;20040;-76
2021/05/19 00:17:55;;;;;;;5.18;2.42;;;;;;;;;;5052840;28;20054;-78
2021/05/19 00:20:21;;;;;;;3.25;2.85;;;;;;;;;;5053169;28;20029;-77
2021/05/19 00:22:47;;;;;;;5.05;3.50;;;;;;;;;;5053092;28;20037;-77
2021/05/19 00:25:13;;;;;;;5.68;2.80;;;;;;;;;;5052997;28;20059;-77
2021/05/19 00:27:38;;;;;;;9.05;4.10;;;;;;;;;;5052710;28;20094;-77
2021/05/19 00:30:06;;;;;;;3.55;2.80;;;;;;;;;;5053404;28;20478;-77
2021/05/19 00:32:31;;;;;;;6.97;4.40;;;;;;;;;;5052714;28;20072;-78
2021/05/19 00:34:56;;;;;;;7.20;4.22;;;;;;;;;;5053187;28;20064;-78
2021/05/19 00:37:22;;;;;;;5.20;4.03;;;;;;;;;;5034892;28;20067;-77
2021/05/19 00:39:47;;;;;;;14.60;4.15;;;;;;;;;;5052300;28;20482;-77
2021/05/19 00:42:14;;;;;;;8.68;4.22;;;;;;;;;;5053084;28;20479;-77
2021/05/19 00:44:40;;;;;;;6.30;3.90;;;;;;;;;;5052524;28;20394;-78
2021/05/19 00:47:06;;;;;;;5.38;3.17;;;;;;;;;;5034781;28;20494;-77
2021/05/19 00:49:33;;;;;;;4.32;2.58;;;;;;;;;;5035168;28;20044;-77
2021/05/19 00:51:59;;;;;;;3.70;2.72;;;;;;;;;;5034905;28;20029;-77
2021/05/19 00:54:25;;;;;;;5.55;3.33;;;;;;;;;;5052944;28;20096;-77
2021/05/19 00:56:51;;;;;;;4.00;3.50;;;;;;;;;;5034785;28;20037;-77
2021/05/19 00:59:17;;;;;;;3.80;3.38;;;;;;;;;;5052952;28;20064;-77
2021/05/19 01:01:50;;;;;;;3.90;3.50;;;;;;;;;;5034108;28;20063;-77
2021/05/19 01:04:19;;;;;;;10.60;3.53;;;;;;;;;;5034893;28;20047;-77
2021/05/19 01:07:09;;;;;;;4.00;3.28;;;;;;;;;;5047181;28;20184;-76
2021/05/19 01:09:35;;;;;;;4.68;3.10;;;;;;;;;;5032646;28;20099;-77
2021/05/19 01:12:10;;;;;;;3.35;2.95;;;;;;;;;;5032593;28;20459;-77
2021/05/19 01:14:38;;;;;;;3.23;2.93;;;;;;;;;;5032966;28;20409;-77
2021/05/19 01:17:04;;;;;;;28.02;3.25;;;;;;;;;;5045226;28;20291;-77
2021/05/19 01:19:30;;;;;;;14.63;2.55;;;;;;;;;;5056559;28;20029;-77
2021/05/19 01:21:56;;;;;;;3.78;3.20;;;;;;;;;;5056134;28;20387;-77
2021/05/19 01:24:22;;;;;;;13.02;2.97;;;;;;;;;;5056399;28;20033;-78
2021/05/19 01:26:48;;;;;;;3.50;2.88;;;;;;;;;;5038197;28;20538;-77
2021/05/19 01:29:15;;;;;;;7.40;2.63;;;;;;;;;;5038373;28;20067;-76
2021/05/19 01:31:44;;;;;;;3.40;2.83;;;;;;;;;;5037928;28;20148;-76
2021/05/19 01:34:10;;;;;;;2.80;2.60;;;;;;;;;;5038374;28;20048;-76
2021/05/19 01:36:35;;;;;;;2.75;2.55;;;;;;;;;;5056332;28;20493;-76
2021/05/19 01:39:01;;;;;;;6.22;2.92;;;;;;;;;;5056166;28;20033;-76
2021/05/19 01:41:27;;;;;;;4.78;3.10;;;;;;;;;;5037543;28;20032;-76
2021/05/19 01:43:52;;;;;;;5.50;2.78;;;;;;;;;;5055650;28;20036;-76
2021/05/19 01:46:27;;;;;;;4.28;2.95;;;;;;;;;;5038015;28;20040;-76
2021/05/19 01:48:58;;;;;;;4.00;3.42;;;;;;;;;;5055801;28;20041;-76
2021/05/19 01:51:24;;;;;;;7.30;2.83;;;;;;;;;;5055863;28;20029;-76
2021/05/19 01:53:50;;;;;;;4.57;3.63;;;;;;;;;;5038193;28;20032;-77
2021/05/19 01:56:15;;;;;;;4.53;3.28;;;;;;;;;;5037812;28;20040;-76
2021/05/19 01:58:42;;;;;;;3.75;3.30;;;;;;;;;;5037656;28;20036;-77
2021/05/19 02:01:08;;;;;;;4.10;3.70;;;;;;;;;;5037968;28;20029;-77
2021/05/19 02:03:35;;;;;;;6.40;3.58;;;;;;;;;;5037671;28;20064;-78
2021/05/19 02:06:18;;;;;;;4.35;3.95;;;;;;;;;;5055600;28;20087;-78
2021/05/19 02:08:48;;;;;;;20.48;4.40;;;;;;;;;;5055815;28;20033;-77
2021/05/19 02:11:15;;;;;;;61.65;4.20;;;;;;;;;;5038145;28;20033;-77
2021/05/19 02:13:40;;;;;;;21.27;3.35;;;;;;;;;;5055544;28;20364;-77
2021/05/19 02:16:10;;;;;;;26.00;4.10;;;;;;;;;;5055634;28;20486;-75
2021/05/19 02:18:37;;;;;;;18.40;3.85;;;;;;;;;;5037699;28;20383;-75
2021/05/19 02:21:03;;;;;;;53.30;4.70;;;;;;;;;;5036232;28;20029;-75
2021/05/19 02:23:31;;;;;;;4.63;4.13;;;;;;;;;;5037989;28;20029;-77
2021/05/19 02:25:57;;;;;;;4.50;3.90;;;;;;;;;;5037228;28;20052;-76
2021/05/19 02:28:22;;;;;;;4.18;3.70;;;;;;;;;;5054791;28;20071;-76
2021/05/19 02:30:50;;;;;;;4.80;4.28;;;;;;;;;;5036930;28;20094;-75
2021/05/19 02:33:21;;;;;;;10.25;4.10;;;;;;;;;;5054652;28;20090;-75
2021/05/19 02:35:47;;;;;;;5.50;4.10;;;;;;;;;;5054588;28;20033;-75
2021/05/19 02:38:12;;;;;;;4.93;4.43;;;;;;;;;;5054893;28;20074;-75
2021/05/19 02:40:38;;;;;;;4.90;4.25;;;;;;;;;;5035413;28;20100;-76
2021/05/19 02:43:04;;;;;;;4.97;4.47;;;;;;;;;;5054866;28;20033;-76
2021/05/19 02:45:35;;;;;;;4.70;4.15;;;;;;;;;;5054968;28;20471;-76
2021/05/19 02:48:00;;;;;;;4.90;4.40;;;;;;;;;;5054616;28;20063;-75
2021/05/19 02:50:26;;;;;;;4.47;4.07;;;;;;;;;;5055165;28;20033;-76
2021/05/19 02:52:51;;;;;;;4.90;4.40;;;;;;;;;;5054690;28;20017;-73
2021/05/19 02:55:17;;;;;;;5.43;4.30;;;;;;;;;;5054326;28;20037;-74
2021/05/19 02:57:43;;;;;;;5.07;4.40;;;;;;;;;;5054357;28;20060;-74
2021/05/19 03:00:09;;;;;;;5.60;4.80;;;;;;;;;;5054647;28;20433;-74
2021/05/19 03:02:35;;;;;;;5.18;4.57;;;;;;;;;;5054170;28;20032;-75
2021/05/19 03:05:01;;;;;;;5.90;5.00;;;;;;;;;;5053919;28;20033;-75
2021/05/19 03:07:26;;;;;;;6.43;4.60;;;;;;;;;;5036558;28;20119;-74
2021/05/19 03:09:51;;;;;;;6.05;4.85;;;;;;;;;;5053353;28;20044;-73
2021/05/19 03:12:17;;;;;;;4.53;4.13;;;;;;;;;;5053928;28;20037;-73
2021/05/19 03:14:42;;;;;;;10.65;4.50;;;;;;;;;;5053921;28;20438;-74
2021/05/19 03:17:07;;;;;;;5.20;4.70;;;;;;;;;;5053959;28;20064;-73
2021/05/19 03:19:33;;;;;;;5.80;5.20;;;;;;;;;;5036039;28;20477;-74
2021/05/19 03:21:59;;;;;;;9.85;5.10;;;;;;;;;;5054157;28;20029;-74
2021/05/19 03:24:24;;;;;;;5.30;4.78;;;;;;;;;;5053005;28;20037;-74
2021/05/19 03:26:50;;;;;;;5.30;4.80;;;;;;;;;;5035940;28;20045;-73
2021/05/19 03:29:15;;;;;;;5.38;4.78;;;;;;;;;;5054041;28;20057;-73
2021/05/19 03:31:41;;;;;;;5.63;5.03;;;;;;;;;;5053584;28;20037;-74
2021/05/19 03:34:06;;;;;;;5.82;5.00;;;;;;;;;;5035779;28;20053;-74
2021/05/19 03:36:32;;;;;;;5.40;4.88;;;;;;;;;;5053850;28;20041;-74
2021/05/19 03:38:57;;;;;;;5.90;5.30;;;;;;;;;;5053621;28;20037;-73
2021/05/19 03:41:23;;;;;;;5.88;5.28;;;;;;;;;;5052121;28;20032;-74
2021/05/19 03:43:48;;;;;;;4.95;4.45;;;;;;;;;;5053521;28;20177;-74
2021/05/19 03:46:15;;;;;;;5.95;5.15;;;;;;;;;;5053652;28;20494;-74
2021/05/19 03:48:41;;;;;;;5.00;4.50;;;;;;;;;;5035616;28;20028;-74
2021/05/19 03:51:07;;;;;;;8.48;4.75;;;;;;;;;;5053565;28;20032;-74
2021/05/19 03:53:33;;;;;;;4.93;4.43;;;;;;;;;;5035681;28;20043;-74
2021/05/19 03:55:58;;;;;;;5.00;4.50;;;;;;;;;;5053232;28;20090;-74
2021/05/19 03:58:24;;;;;;;5.57;4.97;;;;;;;;;;5053472;28;20040;-74
2021/05/19 04:00:49;;;;;;;101.60;7.38;;;;;;;;;;5035556;28;20047;-74
2021/05/19 04:03:15;;;;;;;5.88;5.28;;;;;;;;;;5035566;28;20411;-74
2021/05/19 04:05:41;;;;;;;6.68;5.65;;;;;;;;;;5052817;28;20033;-74
2021/05/19 04:08:07;;;;;;;5.20;4.70;;;;;;;;;;5053298;28;20040;-74
2021/05/19 04:10:34;;;;;;;10.23;5.78;;;;;;;;;;5053078;28;20395;-73
2021/05/19 04:13:03;;;;;;;14.38;5.72;;;;;;;;;;5052506;28;20033;-74
2021/05/19 04:15:29;;;;;;;5.35;4.80;;;;;;;;;;5052903;28;20541;-74
2021/05/19 04:17:55;;;;;;;63.80;5.95;;;;;;;;;;5035294;28;20155;-73
2021/05/19 04:20:21;;;;;;;8.23;5.60;;;;;;;;;;5053217;28;20063;-73
2021/05/19 04:22:46;;;;;;;9.50;5.97;;;;;;;;;;5052574;28;20418;-74
2021/05/19 04:25:13;;;;;;;8.07;5.72;;;;;;;;;;5052926;28;20039;-74
2021/05/19 04:27:39;;;;;;;17.40;5.40;;;;;;;;;;5052349;28;20072;-74
2021/05/19 04:30:07;;;;;;;9.73;6.10;;;;;;;;;;5051761;28;20086;-74
2021/05/19 04:32:32;;;;;;;8.27;5.68;;;;;;;;;;5034861;28;20459;-74
2021/05/19 04:34:58;;;;;;;6.53;5.78;;;;;;;;;;5053193;28;20029;-74
2021/05/19 04:37:23;;;;;;;11.10;5.38;;;;;;;;;;5052907;28;20029;-74
2021/05/19 04:39:49;;;;;;;12.88;5.05;;;;;;;;;;5052819;28;20041;-74
2021/05/19 04:42:15;;;;;;;17.13;5.38;;;;;;;;;;5053030;28;20029;-74
2021/05/19 04:44:40;;;;;;;5.85;4.88;;;;;;;;;;5052853;28;20466;-74
2021/05/19 04:47:06;;;;;;;8.88;5.13;;;;;;;;;;5034773;28;20483;-74
2021/05/19 04:49:31;;;;;;;5.05;4.55;;;;;;;;;;5034080;28;20446;-73
2021/05/19 04:51:57;;;;;;;6.68;4.50;;;;;;;;;;5053724;28;20032;-74
2021/05/19 04:54:22;;;;;;;6.03;4.80;;;;;;;;;;5056955;28;20120;-74
2021/05/19 04:56:48;;;;;;;10.38;4.70;;;;;;;;;;5056817;28;20103;-74
2021/05/19 04:59:13;;;;;;;11.75;5.38;;;;;;;;;;5056544;28;20374;-74
2021/05/19 05:01:38;;;;;;;12.57;5.30;;;;;;;;;;5056456;28;20041;-73
2021/05/19 05:04:04;;;;;;;5.45;4.95;;;;;;;;;;5056704;28;20037;-74
2021/05/19 05:06:29;;;;;;;14.75;4.78;;;;;;;;;;5056520;28;20037;-74
2021/05/19 05:08:55;;;;;;;22.20;4.90;;;;;;;;;;5056367;28;20037;-73
2021/05/19 05:11:21;;;;;;;5.57;4.97;;;;;;;;;;5056691;28;20041;-73
2021/05/19 05:13:46;;;;;;;6.55;5.10;;;;;;;;;;5056534;28;20037;-74
2021/05/19 05:16:14;;;;;;;5.68;4.90;;;;;;;;;;5055401;28;20082;-73
2021/05/19 05:18:41;;;;;;;13.77;6.25;;;;;;;;;;5056238;28;20068;-74
2021/05/19 05:21:08;;;;;;;5.88;4.65;;;;;;;;;;5056443;28;20469;-74
2021/05/19 05:23:34;;;;;;;7.05;5.13;;;;;;;;;;5056343;28;20116;-74
2021/05/19 05:26:01;;;;;;;13.45;4.78;;;;;;;;;;5056485;28;20112;-74
2021/05/19 05:28:26;;;;;;;6.35;5.60;;;;;;;;;;5056161;28;20490;-74
2021/05/19 05:30:53;;;;;;;6.18;5.57;;;;;;;;;;5056201;28;20068;-73
2021/05/19 05:33:19;;;;;;;10.05;6.20;;;;;;;;;;5055631;28;20398;-73
2021/05/19 05:35:44;;;;;;;8.13;5.97;;;;;;;;;;5056290;28;20420;-73
2021/05/19 05:38:10;;;;;;;9.85;5.63;;;;;;;;;;5055871;28;20041;-74
2021/05/19 05:40:35;;;;;;;6.72;5.85;;;;;;;;;;5056243;28;20029;-74
2021/05/19 05:43:01;;;;;;;6.75;5.85;;;;;;;;;;5055887;28;20437;-74
2021/05/19 05:45:27;;;;;;;6.68;5.82;;;;;;;;;;5055151;28;20132;-74
2021/05/19 05:47:54;;;;;;;6.53;5.65;;;;;;;;;;5056222;28;20029;-74
2021/05/19 05:50:19;;;;;;;6.80;6.10;;;;;;;;;;5055748;28;20041;-74
2021/05/19 05:52:44;;;;;;;7.55;6.10;;;;;;;;;;5054910;28;20101;-74
2021/05/19 05:55:10;;;;;;;8.05;6.53;;;;;;;;;;5055921;28;20036;-74
2021/05/19 05:57:36;;;;;;;7.72;5.60;;;;;;;;;;5037539;28;20033;-74
2021/05/19 06:00:01;;;;;;;6.72;6.03;;;;;;;;;;5055312;28;20501;-74
2021/05/19 06:02:26;;;;;;;7.57;6.32;;;;;;;;;;5054880;28;20116;-74
2021/05/19 06:04:52;;;;;;;9.68;6.95;;;;;;;;;;5055640;28;20067;-74
2021/05/19 06:07:17;;;;;;;7.22;6.50;;;;;;;;;;5055685;28;20044;-74
2021/05/19 06:09:50;;;;;;;9.15;5.85;;;;;;;;;;5055550;28;20049;-74
2021/05/19 06:12:15;;;;;;;7.72;6.82;;;;;;;;;;5054477;28;20041;-74
2021/05/19 06:14:41;;;;;;;7.63;6.43;;;;;;;;;;5055452;28;20079;-74
2021/05/19 06:17:06;;;;;;;6.85;5.65;;;;;;;;;;5055283;28;20032;-75
2021/05/19 06:19:32;;;;;;;7.78;6.38;;;;;;;;;;5055332;28;20043;-74
2021/05/19 06:21:57;;;;;;;7.20;6.50;;;;;;;;;;5055424;28;20072;-75
2021/05/19 06:24:22;;;;;;;7.13;6.30;;;;;;;;;;5055276;28;20033;-75
2021/05/19 06:26:48;;;;;;;9.75;6.50;;;;;;;;;;5055072;28;20040;-74
2021/05/19 06:29:15;;;;;;;7.68;6.85;;;;;;;;;;5055360;28;20086;-75
2021/05/19 06:31:41;;;;;;;7.95;7.15;;;;;;;;;;5036373;28;20045;-76
2021/05/19 06:34:06;;;;;;;6.15;5.47;;;;;;;;;;5055057;28;20045;-75
2021/05/19 06:36:32;;;;;;;6.10;5.50;;;;;;;;;;5020460;28;20040;-75
2021/05/19 06:38:57;;;;;;;9.55;6.28;;;;;;;;;;5055085;28;20044;-75
2021/05/19 06:41:22;;;;;;;7.68;6.53;;;;;;;;;;5036086;28;20120;-75
2021/05/19 06:43:48;;;;;;;8.02;6.30;;;;;;;;;;5055006;28;20139;-73
2021/05/19 06:46:13;;;;;;;6.72;5.90;;;;;;;;;;5054952;28;20032;-75
2021/05/19 06:48:39;;;;;;;6.68;5.97;;;;;;;;;;5054645;28;20087;-74
2021/05/19 06:51:05;;;;;;;7.78;6.50;;;;;;;;;;5054692;28;20045;-74
2021/05/19 06:53:30;;;;;;;7.85;6.13;;;;;;;;;;5054765;28;20044;-75
2021/05/19 06:55:57;;;;;;;9.50;7.05;;;;;;;;;;5054301;28;20037;-74
2021/05/19 06:58:23;;;;;;;9.57;6.30;;;;;;;;;;5054499;28;20035;-75
2021/05/19 07:00:48;;;;;;;9.00;6.20;;;;;;;;;;5055086;28;20041;-73
2021/05/19 07:03:14;;;;;;;7.47;6.53;;;;;;;;;;5054236;28;20032;-74
2021/05/19 07:05:41;;;;;;;9.48;7.70;;;;;;;;;;5054513;28;20487;-73
2021/05/19 07:08:07;;;;;;;12.98;7.13;;;;;;;;;;5053766;28;20025;-74
2021/05/19 07:10:33;;;;;;;10.00;7.10;;;;;;;;;;5035776;28;20036;-74
2021/05/19 07:12:58;;;;;;;14.88;7.40;;;;;;;;;;5054205;28;20384;-74
2021/05/19 07:15:24;;;;;;;8.50;6.72;;;;;;;;;;5053882;28;20083;-76
2021/05/19 07:17:49;;;;;;;9.15;7.88;;;;;;;;;;5055677;28;20033;-76
2021/05/19 07:20:15;;;;;;;11.30;9.32;;;;;;;;;;5057415;28;20024;-78
2021/05/19 07:22:41;;;;;;;11.85;8.95;;;;;;;;;;5065665;28;21736;-77
2021/05/19 07:25:07;;;;;;;15.43;9.75;;;;;;;;;;5065647;28;20037;-76
2021/05/19 07:27:33;;;;;;;8.60;7.43;;;;;;;;;;5039333;28;20108;-77
2021/05/19 07:30:00;;;;;;;12.52;9.45;;;;;;;;;;5074020;28;20095;-76
2021/05/19 07:32:26;;;;;;;10.60;9.10;;;;;;;;;;5073676;28;20048;-75
2021/05/19 07:34:51;;;;;;;10.73;8.75;;;;;;;;;;5074026;28;20033;-75
2021/05/19 07:37:17;;;;;;;10.27;8.77;;;;;;;;;;5073734;28;20035;-75
2021/05/19 07:39:43;;;;;;;11.95;10.20;;;;;;;;;;5073549;28;20044;-75
2021/05/19 07:42:16;;;;;;;10.85;8.32;;;;;;;;;;5039202;28;20032;-74
2021/05/19 07:44:41;;;;;;;9.15;7.93;;;;;;;;;;5073767;28;20028;-75
2021/05/19 07:47:06;;;;;;;10.40;8.38;;;;;;;;;;5072953;28;20520;-75
2021/05/19 07:49:32;;;;;;;11.95;8.70;;;;;;;;;;5073412;28;20036;-74
2021/05/19 07:51:57;;;;;;;11.77;8.30;;;;;;;;;;5073092;28;20036;-74
2021/05/19 07:54:28;;;;;;;8.70;7.30;;;;;;;;;;5056265;28;20147;-74
2021/05/19 07:56:57;;;;;;;10.35;7.00;;;;;;;;;;5044149;28;20032;-74
2021/05/19 07:59:26;;;;;;;12.38;7.28;;;;;;;;;;5053241;28;20509;-74
2021/05/19 08:02:12;;;;;;;10.13;6.80;;;;;;;;;;5053498;28;20033;-75
2021/05/19 08:04:38;;;;;;;12.55;7.03;;;;;;;;;;5053293;28;20095;-75
2021/05/19 08:07:04;;;;;;;10.63;7.70;;;;;;;;;;5035251;28;20029;-76
2021/05/19 08:09:30;;;;;;;8.55;6.45;;;;;;;;;;5063695;28;20547;-75
2021/05/19 08:11:56;;;;;;;8.55;6.45;;;;;;;;;;5059281;28;20028;-76
2021/05/19 08:14:25;;;;;;;9.95;7.50;;;;;;;;;;5062661;28;20526;-82
2021/05/19 08:16:51;;;;;;;8.32;6.25;;;;;;;;;;5060240;28;20036;-76
2021/05/19 08:19:17;;;;;;;10.45;6.22;;;;;;;;;;5051914;28;20037;-76
2021/05/19 08:21:43;;;;;;;7.68;5.85;;;;;;;;;;5051441;28;20075;-76
2021/05/19 08:24:09;;;;;;;7.45;6.28;;;;;;;;;;5035337;28;20064;-77
2021/05/19 08:26:35;;;;;;;8.02;5.60;;;;;;;;;;5052339;28;20451;-75
2021/05/19 08:29:00;;;;;;;6.30;5.70;;;;;;;;;;5053421;28;20032;-76
2021/05/19 08:31:26;;;;;;;6.72;5.53;;;;;;;;;;5052240;28;20490;-77
2021/05/19 08:33:52;;;;;;;6.53;5.25;;;;;;;;;;5052692;28;20136;-74
2021/05/19 08:36:18;;;;;;;8.32;5.75;;;;;;;;;;5052065;28;20120;-72
2021/05/19 08:38:44;;;;;;;8.00;4.97;;;;;;;;;;5052345;28;20029;-73
2021/05/19 08:41:10;;;;;;;7.63;5.30;;;;;;;;;;5052716;28;20033;-73
2021/05/19 08:43:36;;;;;;;5.47;4.70;;;;;;;;;;5050692;28;20029;-73
2021/05/19 08:46:08;;;;;;;6.32;4.68;;;;;;;;;;5052799;28;20043;-73
2021/05/19 08:48:34;;;;;;;8.20;3.72;;;;;;;;;;5052916;28;20040;-73
2021/05/19 08:51:00;;;;;;;7.68;4.53;;;;;;;;;;5052944;28;20111;-73
2021/05/19 08:53:27;;;;;;;5.30;4.57;;;;;;;;;;5052825;28;20037;-73
2021/05/19 08:55:53;;;;;;;8.18;4.80;;;;;;;;;;5052840;28;20136;-73
2021/05/19 08:58:18;;;;;;;6.60;3.75;;;;;;;;;;5051991;28;20029;-76
2021/05/19 09:00:44;;;;;;;7.68;5.28;;;;;;;;;;5052651;28;20116;-76
2021/05/19 09:03:14;;;;;;;5.95;5.03;;;;;;;;;;5052781;28;20090;-75
2021/05/19 09:05:42;;;;;;;6.97;4.63;;;;;;;;;;5032988;28;20041;-76
2021/05/19 09:08:09;;;;;;;6.75;4.75;;;;;;;;;;5032807;28;20034;-74
2021/05/19 09:10:37;;;;;;;4.85;3.08;;;;;;;;;;5032709;28;20087;-75
2021/05/19 09:13:02;;;;;;;8.77;2.78;;;;;;;;;;5032721;28;20044;-75
2021/05/19 09:15:47;;;;;;;3.47;2.30;;;;;;;;;;5032453;28;20041;-74
2021/05/19 09:18:13;;;;;;;5.40;2.72;;;;;;;;;;5052737;28;20033;-75
2021/05/19 09:20:47;;;;;;;5.47;3.10;;;;;;;;;;5052611;28;20059;-76
2021/05/19 09:23:21;;;;;;;3.40;2.30;;;;;;;;;;5034740;28;20478;-77
2021/05/19 09:26:05;;;;;;;3.15;2.17;;;;;;;;;;5035476;28;20638;-77
2021/05/19 09:28:31;;;;;;;4.40;2.42;;;;;;;;;;5052702;28;20390;-76
2021/05/19 09:30:56;;;;;;;3.55;2.75;;;;;;;;;;5052430;28;20067;-76
2021/05/19 09:33:28;;;;;;;7.72;4.95;;;;;;;;;;5052690;28;20045;-75
2021/05/19 09:36:18;;;;;;;6.25;4.40;;;;;;;;;;5054680;28;20513;-78
2021/05/19 09:38:46;;;;;;;4.00;3.47;;;;;;;;;;5061393;28;20037;-81
2021/05/19 09:41:16;;;;;;;5.53;2.80;;;;;;;;;;5052302;28;20039;-80
2021/05/19 09:43:42;;;;;;;5.60;3.03;;;;;;;;;;5065454;28;20037;-79
2021/05/19 09:46:15;;;;;;;6.95;3.60;;;;;;;;;;5062752;28;20171;-77
2021/05/19 09:48:40;;;;;;;4.65;2.80;;;;;;;;;;5045445;28;20409;-78
2021/05/19 09:51:07;;;;;;;4.93;3.17;;;;;;;;;;5066408;28;20037;-77
2021/05/19 09:53:33;;;;;;;4.15;2.95;;;;;;;;;;5048649;28;20036;-80
2021/05/19 09:55:59;;;;;;;6.53;3.90;;;;;;;;;;5041011;28;20036;-77
2021/05/19 09:58:42;;;;;;;5.82;3.13;;;;;;;;;;5056012;28;20427;-77
2021/05/19 10:01:08;;;;;;;10.05;2.40;;;;;;;;;;5056460;28;20398;-76
2021/05/19 10:03:36;;;;;;;3.38;1.95;;;;;;;;;;5037851;28;20033;-76
2021/05/19 10:06:13;;;;;;;9.73;3.00;;;;;;;;;;5054744;28;20107;-77
2021/05/19 10:08:38;;;;;;;8.82;2.72;;;;;;;;;;5056026;28;20037;-76
2021/05/19 10:11:05;;;;;;;9.32;3.15;;;;;;;;;;5055516;28;20091;-76
2021/05/19 10:13:33;;;;;;;8.02;3.17;;;;;;;;;;5055515;28;20099;-76
2021/05/19 10:16:04;;;;;;;5.70;2.58;;;;;;;;;;5021093;28;20040;-76
2021/05/19 10:18:33;;;;;;;4.18;2.63;;;;;;;;;;5038224;28;20037;-76
2021/05/19 10:21:00;;;;;;;5.75;2.80;;;;;;;;;;5054473;28;20545;-76
2021/05/19 10:23:32;;;;;;;8.55;2.70;;;;;;;;;;5055050;28;20048;-76
2021/05/19 10:26:07;;;;;;;4.68;2.10;;;;;;;;;;5055206;28;20037;-75
2021/05/19 10:28:42;;;;;;;2.30;1.63;;;;;;;;;;5037260;28;20041;-76
2021/05/19 10:31:25;;;;;;;2.55;1.58;;;;;;;;;;5054358;28;20112;-76
2021/05/19 10:34:01;;;;;;;1.73;1.33;;;;;;;;;;5055102;28;20124;-76
2021/05/19 10:36:45;;;;;;;2.35;1.33;;;;;;;;;;5055092;28;20045;-76
2021/05/19 10:39:13;;;;;;;2.00;1.20;;;;;;;;;;5053780;28;20036;-76
2021/05/19 10:41:41;;;;;;;2.55;1.20;;;;;;;;;;5054779;28;20386;-76
2021/05/19 10:44:09;;;;;;;2.95;1.13;;;;;;;;;;5020695;28;20040;-76
2021/05/19 10:49:43;;;;;;;5.72;1.40;;;;;;;;;;5035748;28;20033;-76
2021/05/19 10:57:56;;;;;;;3.65;1.50;;;;;;;;;;5054525;28;20036;-76
2021/05/19 11:00:24;;;;;;;2.70;1.58;;;;;;;;;;5054725;28;20068;-76
2021/05/19 11:02:53;;;;;;;2.42;1.60;;;;;;;;;;5054399;28;20505;-76
2021/05/19 11:05:24;;;;;;;6.57;1.40;;;;;;;;;;5054875;28;20416;-76
2021/05/19 11:08:05;;;;;;;2.90;1.65;;;;;;;;;;5054485;28;20120;-76
2021/05/19 11:10:30;;;;;;;4.75;1.52;;;;;;;;;;5053280;28;20051;-76
2021/05/19 11:12:57;;;;;;;2.10;1.15;;;;;;;;;;5054344;28;20021;-76
2021/05/19 11:21:19;;;;;;;3.08;1.92;;;;;;;;;;5022883;28;20067;-75
2021/05/19 11:24:12;;;;;;;2.78;1.92;;;;;;;;;;5053320;28;20123;-76
2021/05/19 11:26:40;;;;;;;2.88;1.80;;;;;;;;;;5054097;28;20029;-77
2021/05/19 11:29:07;;;;;;;2.72;1.90;;;;;;;;;;5053870;28;20479;-75
2021/05/19 11:31:39;;;;;;;2.53;1.98;;;;;;;;;;5054012;28;20033;-75
2021/05/19 11:34:06;;;;;;;2.97;1.83;;;;;;;;;;5035861;28;20187;-75
2021/05/19 11:36:47;;;;;;;3.35;1.80;;;;;;;;;;5053903;28;20558;-75
2021/05/19 11:39:27;;;;;;;2.33;2.08;;;;;;;;;;5053682;28;20166;-75
2021/05/19 11:42:07;;;;;;;2.67;2.10;;;;;;;;;;5053763;28;20657;-75
2021/05/19 11:44:38;;;;;;;4.55;2.70;;;;;;;;;;5053070;28;20112;-75
2021/05/19 11:47:05;;;;;;;3.85;2.55;;;;;;;;;;5053843;28;20528;-75
2021/05/19 11:49:31;;;;;;;4.03;2.25;;;;;;;;;;5053548;28;20094;-76
2021/05/19 11:51:57;;;;;;;2.45;2.08;;;;;;;;;;5035642;28;20119;-75
2021/05/19 11:54:24;;;;;;;2.97;2.25;;;;;;;;;;5053833;28;20033;-75
2021/05/19 11:56:52;;;;;;;3.05;2.20;;;;;;;;;;5053455;28;20044;-76
2021/05/19 11:59:25;;;;;;;2.58;1.98;;;;;;;;;;5053374;28;20041;-76
2021/05/19 12:01:57;;;;;;;4.43;2.33;;;;;;;;;;5052954;28;20155;-75
2021/05/19 12:04:23;;;;;;;4.10;2.47;;;;;;;;;;5035577;28;20040;-76
2021/05/19 12:06:49;;;;;;;5.72;1.60;;;;;;;;;;5053394;28;20111;-76
2021/05/19 12:09:17;;;;;;;2.78;2.00;;;;;;;;;;5035551;28;20128;-75
2021/05/19 12:11:44;;;;;;;2.92;1.90;;;;;;;;;;5052679;28;20124;-75
2021/05/19 12:14:10;;;;;;;2.03;1.52;;;;;;;;;;5053378;28;20054;-76
2021/05/19 12:16:40;;;;;;;3.55;1.30;;;;;;;;;;5053192;28;20039;-75
2021/05/19 12:19:14;;;;;;;3.40;1.38;;;;;;;;;;5053066;28;20045;-75
2021/05/19 12:21:40;;;;;;;2.85;1.40;;;;;;;;;;5053351;28;20034;-75
2021/05/19 12:24:07;;;;;;;2.63;1.20;;;;;;;;;;5052607;28;20426;-75
2021/05/19 12:26:35;;;;;;;1.55;1.33;;;;;;;;;;5035236;28;20037;-75
2021/05/19 12:29:00;;;;;;;2.72;1.63;;;;;;;;;;5052905;28;20033;-75
2021/05/19 12:31:34;;;;;;;1.50;1.05;;;;;;;;;;5052697;28;20582;-75
2021/05/19 12:34:00;;;;;;;3.15;1.05;;;;;;;;;;5035310;28;20045;-75
2021/05/19 12:36:34;;;;;;;2.75;1.00;;;;;;;;;;5052968;28;20491;-75
2021/05/19 12:39:03;;;;;;;2.08;0.85;;;;;;;;;;5052625;28;20049;-75
2021/05/19 12:41:44;;;;;;;0.98;0.80;;;;;;;;;;5052626;28;20029;-75
2021/05/19 12:44:12;;;;;;;0.70;0.68;;;;;;;;;;5053286;28;20368;-75
2021/05/19 12:46:38;;;;;;;2.85;2.05;;;;;;;;;;5052852;28;20028;-75
2021/05/19 12:49:09;;;;;;;1.98;1.50;;;;;;;;;;5035072;28;20502;-75
2021/05/19 12:51:51;;;;;;;2.95;1.75;;;;;;;;;;5052870;28;20422;-75
2021/05/19 12:54:19;;;;;;;1.83;1.50;;;;;;;;;;5052897;28;20106;-75
2021/05/19 12:56:44;;;;;;;3.15;1.13;;;;;;;;;;5034619;28;20095;-75
2021/05/19 12:59:09;;;;;;;1.98;1.45;;;;;;;;;;5035167;28;20056;-75
2021/05/19 13:01:46;;;;;;;1.95;1.23;;;;;;;;;;5052635;28;20033;-75
2021/05/19 13:04:12;;;;;;;3.90;2.10;;;;;;;;;;5032760;28;20033;-75
2021/05/19 13:06:39;;;;;;;4.65;1.90;;;;;;;;;;5014866;28;20038;-75
2021/05/19 13:09:07;;;;;;;2.30;1.27;;;;;;;;;;5033013;28;20547;-75
2021/05/19 13:11:35;;;;;;;2.33;1.60;;;;;;;;;;5034816;28;20045;-75
2021/05/19 13:14:01;;;;;;;2.40;1.73;;;;;;;;;;5054403;28;20475;-75
2021/05/19 13:16:35;;;;;;;2.55;1.48;;;;;;;;;;5038613;28;20029;-75
2021/05/19 13:19:05;;;;;;;3.00;1.42;;;;;;;;;;5056655;28;20045;-75
2021/05/19 13:21:47;;;;;;;4.30;1.83;;;;;;;;;;5056337;28;20537;-75
2021/05/19 13:24:17;;;;;;;5.47;1.80;;;;;;;;;;5056496;28;20108;-75
2021/05/19 13:26:45;;;;;;;2.65;1.60;;;;;;;;;;5056298;28;20037;-75
2021/05/19 13:29:15;;;;;;;2.13;1.70;;;;;;;;;;5056251;28;20044;-75
2021/05/19 13:31:50;;;;;;;2.55;1.63;;;;;;;;;;5038311;28;20037;-75
2021/05/19 13:36:44;;;;;;;2.67;1.65;;;;;;;;;;5055999;28;20116;-75
2021/05/19 13:39:27;;;;;;;2.30;1.75;;;;;;;;;;5038596;28;20516;-77
2021/05/19 13:41:55;;;;;;;2.10;1.73;;;;;;;;;;5056149;28;20601;-76
2021/05/19 13:44:23;;;;;;;3.13;1.80;;;;;;;;;;5038227;28;20048;-75
2021/05/19 13:46:50;;;;;;;3.28;1.70;;;;;;;;;;5055952;28;20036;-75
2021/05/19 13:49:23;;;;;;;4.03;1.50;;;;;;;;;;5055935;28;20041;-76
2021/05/19 13:51:57;;;;;;;2.72;1.80;;;;;;;;;;5038966;28;20043;-76
2021/05/19 13:54:23;;;;;;;3.53;2.10;;;;;;;;;;5055596;28;20028;-76
2021/05/19 13:56:49;;;;;;;2.75;1.83;;;;;;;;;;5055692;28;20067;-76
2021/05/19 13:59:14;;;;;;;5.07;1.80;;;;;;;;;;5055907;28;20056;-75
2021/05/19 14:01:40;;;;;;;2.75;1.92;;;;;;;;;;5037852;28;20033;-75
2021/05/19 14:04:06;;;;;;;4.55;1.70;;;;;;;;;;5056458;28;20048;-75
2021/05/19 14:06:32;;;;;;;2.88;1.77;;;;;;;;;;5055373;28;20056;-75
2021/05/19 14:08:58;;;;;;;2.90;1.50;;;;;;;;;;5053074;28;20074;-78
2021/05/19 14:11:24;;;;;;;1.85;1.60;;;;;;;;;;5033659;28;20102;-78
2021/05/19 14:27:21;;;;;;;3.30;1.92;;;;;;;;;;5055194;28;20028;-76
2021/05/19 14:29:49;;;;;;;5.22;2.30;;;;;;;;;;5055375;28;20487;-76
2021/05/19 14:32:15;;;;;;;4.85;2.10;;;;;;;;;;5036137;28;20475;-76
2021/05/19 14:34:41;;;;;;;2.05;1.60;;;;;;;;;;5055064;28;20045;-76
2021/05/19 15:01:28;;;;;;;6.38;2.40;;;;;;;;;;5034483;28;20049;-78
2021/05/19 15:03:53;;;;;;;3.60;1.90;;;;;;;;;;5017234;28;20107;-77
2021/05/19 15:06:19;;;;;;;3.67;2.20;;;;;;;;;;5034671;28;20033;-77
2021/05/19 15:08:44;;;;;;;3.85;2.20;;;;;;;;;;5016824;28;20095;-77
2021/05/19 15:11:10;;;;;;;3.08;1.88;;;;;;;;;;5047174;28;20040;-77
2021/05/19 15:13:35;;;;;;;4.80;2.50;;;;;;;;;;5054397;28;20104;-77
2021/05/19 15:16:03;;;;;;;3.70;1.88;;;;;;;;;;5054202;28;20037;-78
2021/05/19 15:18:28;;;;;;;2.40;1.70;;;;;;;;;;5054333;28;20383;-77
2021/05/19 15:20:54;;;;;;;6.55;2.05;;;;;;;;;;5054508;28;20033;-78
2021/05/19 15:23:20;;;;;;;2.65;1.70;;;;;;;;;;5053770;28;20033;-78
2021/05/19 15:25:45;;;;;;;6.47;1.90;;;;;;;;;;5053719;28;20401;-77
2021/05/19 15:28:11;;;;;;;5.07;2.10;;;;;;;;;;5054116;28;20025;-77
2021/05/19 15:30:36;;;;;;;7.68;1.80;;;;;;;;;;5054470;28;20387;-78
2021/05/19 15:33:02;;;;;;;4.30;1.90;;;;;;;;;;5053970;28;20112;-77
2021/05/19 15:35:27;;;;;;;8.70;2.00;;;;;;;;;;5052782;28;20471;-77
2021/05/19 15:37:55;;;;;;;5.35;2.92;;;;;;;;;;5052348;28;20115;-77